Terminal Aerodrome Forecast
Issued by NWS

Home | Current Version | Previous Version | Text Only | Print | Product List | Glossary On
Versions: 1 2 3 4 5 6 7 8 9 10 11 12 13 14 15 16 17 18 19 20
313
FTUS45 KFGZ 212320
TAFGCN
TAF
KGCN 212320Z 2200/2224 23010G20KT 6SM -SHRA BKN035
      TEMPO 2200/2201 4SM -SHRA OVC030
     FM220200 22010KT P6SM FEW040 SCT120 BKN200
     FM221700 23020G30KT P6SM SCT030 BKN110=

USA.gov is the U.S. government's official web portal to all federal, state and local government web resources and services.